createdAt,value
2017-09-04T00:01:12.439Z,94.20
2017-09-04T00:03:39.936Z,94.10
2017-09-04T00:06:07.436Z,94.00
2017-09-04T00:08:38.709Z,94.10
2017-09-04T00:11:06.204Z,94.20
2017-09-04T00:13:34.505Z,94.30
2017-09-04T00:16:02.032Z,94.20
2017-09-04T00:18:29.579Z,94.20
2017-09-04T00:20:57.846Z,94.50
2017-09-04T00:23:25.351Z,94.80
2017-09-04T00:25:52.933Z,94.30
2017-09-04T00:28:20.442Z,94.50
2017-09-04T00:30:47.938Z,94.50
2017-09-04T00:33:15.439Z,94.40
2017-09-04T00:35:42.935Z,94.30
2017-09-04T00:38:10.531Z,94.30
2017-09-04T00:40:41.455Z,94.30
2017-09-04T00:43:09.220Z,94.30
2017-09-04T00:45:36.764Z,94.30
2017-09-04T00:48:04.746Z,94.20
2017-09-04T00:50:32.246Z,94.30
2017-09-04T00:52:59.788Z,94.30
2017-09-04T00:55:32.019Z,94.20
2017-09-04T00:58:03.535Z,94.40
2017-09-04T01:00:31.824Z,94.60
2017-09-04T01:02:59.359Z,94.30
2017-09-04T01:05:26.868Z,94.10
2017-09-04T01:07:54.367Z,94.20
2017-09-04T01:10:21.881Z,94.20
2017-09-04T01:12:49.440Z,94.20
2017-09-04T01:15:16.971Z,94.10
2017-09-04T01:17:44.508Z,94.30
2017-09-04T01:20:12.484Z,94.20
2017-09-04T01:22:39.982Z,94.30
2017-09-04T01:25:07.574Z,94.30
2017-09-04T01:27:39.404Z,94.20
2017-09-04T01:30:07.770Z,94.10
2017-09-04T01:32:35.259Z,94.20
2017-09-04T01:35:02.752Z,94.40
2017-09-04T01:37:30.247Z,94.40
2017-09-04T01:39:58.164Z,94.50
2017-09-04T01:42:26.416Z,94.40
2017-09-04T01:44:53.916Z,94.40
2017-09-04T01:47:22.179Z,94.50
2017-09-04T01:49:49.698Z,94.50
2017-09-04T01:52:17.191Z,94.50
2017-09-04T01:54:45.605Z,94.50
2017-09-04T01:57:17.182Z,94.50
2017-09-04T01:59:44.895Z,94.50
2017-09-04T02:02:12.391Z,94.60
2017-09-04T02:04:41.447Z,94.40
2017-09-04T02:07:09.071Z,94.40
2017-09-04T02:09:36.567Z,94.30
2017-09-04T02:12:08.699Z,94.10
2017-09-04T02:14:36.190Z,94.10
2017-09-04T02:17:03.699Z,93.90
2017-09-04T02:19:31.595Z,94.00
2017-09-04T02:22:00.015Z,94.10
2017-09-04T02:24:27.514Z,94.20
2017-09-04T02:26:58.331Z,94.20
2017-09-04T02:29:25.830Z,94.20
2017-09-04T02:31:53.335Z,94.30
2017-09-04T02:34:21.607Z,94.30
2017-09-04T02:36:50.320Z,94.30
2017-09-04T02:39:17.819Z,94.30
2017-09-04T02:41:45.335Z,94.30
2017-09-04T02:44:12.851Z,94.10
2017-09-04T02:46:40.459Z,94.20
2017-09-04T02:49:08.881Z,94.20
2017-09-04T02:51:36.395Z,94.20
2017-09-04T02:54:03.900Z,94.20
2017-09-04T02:56:31.398Z,94.40
2017-09-04T02:58:58.916Z,94.30
2017-09-04T03:01:26.432Z,94.30
2017-09-04T03:03:56.739Z,94.40
2017-09-04T03:06:24.246Z,94.80
2017-09-04T03:08:52.663Z,94.40
2017-09-04T03:11:20.195Z,94.50
2017-09-04T03:13:47.691Z,94.40
2017-09-04T03:16:15.196Z,94.40
2017-09-04T03:18:42.721Z,94.40
2017-09-04T03:21:10.214Z,94.30
2017-09-04T03:23:37.843Z,94.20
2017-09-04T03:26:05.980Z,94.10
2017-09-04T03:28:33.487Z,94.10
2017-09-04T03:31:00.992Z,94.30
2017-09-04T03:33:28.506Z,94.40
2017-09-04T03:35:56.008Z,94.20
2017-09-04T03:38:23.514Z,94.10
2017-09-04T03:40:51.050Z,94.10
2017-09-04T03:43:22.412Z,94.10
2017-09-04T03:45:50.415Z,94.20
2017-09-04T03:48:17.944Z,94.40
2017-09-04T03:50:45.476Z,94.40
2017-09-04T03:53:13.674Z,94.50
2017-09-04T03:55:41.177Z,94.40
2017-09-04T03:58:12.348Z,94.30
2017-09-04T04:00:39.842Z,94.40
2017-09-04T04:03:07.336Z,94.30
2017-09-04T04:05:34.839Z,94.30
2017-09-04T04:08:02.750Z,94.30
2017-09-04T04:10:30.260Z,94.30
2017-09-04T04:13:02.048Z,94.30
2017-09-04T04:15:29.542Z,94.40
2017-09-04T04:17:57.500Z,94.40
2017-09-04T04:20:25.008Z,94.40
2017-09-04T04:22:53.299Z,94.40
2017-09-04T04:25:21.021Z,94.40
2017-09-04T04:27:48.862Z,94.40
2017-09-04T04:30:16.367Z,94.30
2017-09-04T04:32:43.876Z,94.40
2017-09-04T04:35:11.379Z,94.20
2017-09-04T04:37:39.688Z,94.00
2017-09-04T04:40:07.427Z,94.00
2017-09-04T04:42:35.201Z,94.20
2017-09-04T04:45:02.748Z,94.10
2017-09-04T04:47:30.286Z,94.20
2017-09-04T04:49:57.840Z,94.10
2017-09-04T04:52:26.023Z,94.20
2017-09-04T04:54:53.717Z,94.40
2017-09-04T04:57:21.456Z,94.40
2017-09-04T04:59:49.235Z,94.10
2017-09-04T05:02:16.785Z,93.70
2017-09-04T05:04:46.003Z,93.00
2017-09-04T05:07:13.767Z,93.00
2017-09-04T05:09:41.289Z,92.40
2017-09-04T05:12:10.495Z,91.30
2017-09-04T05:14:38.009Z,91.20
2017-09-04T05:17:06.289Z,91.00
2017-09-04T05:19:34.702Z,91.00
2017-09-04T05:22:02.208Z,91.30
2017-09-04T05:24:29.725Z,91.40
2017-09-04T05:26:57.227Z,91.40
2017-09-04T05:29:28.204Z,91.50
2017-09-04T05:32:00.051Z,91.50
2017-09-04T05:34:28.024Z,91.60
2017-09-04T05:36:55.573Z,91.70
2017-09-04T05:39:23.285Z,91.70
2017-09-04T05:41:50.840Z,91.30
2017-09-04T05:44:19.174Z,91.20
2017-09-04T05:46:50.989Z,90.90
2017-09-04T05:49:19.724Z,90.90
2017-09-04T05:51:47.266Z,89.90
2017-09-04T05:54:14.819Z,89.00
2017-09-04T05:56:42.364Z,88.60
2017-09-04T05:59:10.001Z,88.20
2017-09-04T06:01:40.857Z,87.80
2017-09-04T06:04:08.967Z,87.80
2017-09-04T06:06:37.262Z,87.60
2017-09-04T06:09:04.816Z,86.80
2017-09-04T06:11:32.434Z,86.50
2017-09-04T06:14:00.709Z,86.60
2017-09-04T06:16:28.611Z,86.60
2017-09-04T06:18:56.188Z,86.60
2017-09-04T06:21:23.696Z,86.60
2017-09-04T06:23:51.349Z,87.00
2017-09-04T06:26:18.903Z,85.20
2017-09-04T06:28:47.463Z,84.70
2017-09-04T06:31:14.967Z,84.80
2017-09-04T06:33:45.845Z,85.10
2017-09-04T06:36:13.363Z,85.10
2017-09-04T06:38:40.880Z,84.80
2017-09-04T06:41:08.403Z,84.70
2017-09-04T06:43:36.657Z,85.00
2017-09-04T06:46:04.203Z,85.50
2017-09-04T06:48:31.708Z,85.90
2017-09-04T06:50:59.259Z,86.30
2017-09-04T06:53:26.775Z,86.80
2017-09-04T06:55:54.332Z,86.90
2017-09-04T06:58:22.179Z,85.90
2017-09-04T07:00:54.269Z,85.40
2017-09-04T07:03:21.786Z,85.80
2017-09-04T07:05:51.316Z,85.40
2017-09-04T07:08:18.835Z,85.30
2017-09-04T07:10:46.342Z,85.60
2017-09-04T07:13:13.945Z,85.50
2017-09-04T07:15:41.450Z,85.40
2017-09-04T07:18:10.755Z,85.40
2017-09-04T07:20:38.284Z,84.90
2017-09-04T07:23:06.555Z,85.40
2017-09-04T07:25:34.588Z,85.40
2017-09-04T07:28:02.102Z,85.00
2017-09-04T07:30:29.619Z,84.80
2017-09-04T07:32:57.126Z,84.30
2017-09-04T07:35:24.855Z,83.90
2017-09-04T07:37:52.367Z,83.70
2017-09-04T07:40:20.110Z,84.00
2017-09-04T07:42:48.514Z,83.30
2017-09-04T07:45:16.119Z,83.10
2017-09-04T07:47:47.034Z,83.00
2017-09-04T07:50:14.534Z,82.80
2017-09-04T07:52:43.748Z,81.80
2017-09-04T07:55:11.303Z,81.70
2017-09-04T07:57:38.823Z,80.70
2017-09-04T08:00:06.329Z,80.60
2017-09-04T08:02:33.848Z,80.50
2017-09-04T08:05:02.291Z,80.40
2017-09-04T08:07:29.813Z,80.00
2017-09-04T08:09:58.153Z,79.50
2017-09-04T08:12:25.676Z,79.50
2017-09-04T08:14:53.184Z,78.60
2017-09-04T08:17:21.455Z,77.90
2017-09-04T08:19:48.981Z,77.60
2017-09-04T08:22:16.542Z,76.30
2017-09-04T08:24:44.076Z,75.60
2017-09-04T08:27:11.604Z,76.60
2017-09-04T08:29:40.840Z,74.90
2017-09-04T08:32:08.348Z,74.90
2017-09-04T08:34:36.058Z,74.20
2017-09-04T08:37:03.759Z,73.60
2017-09-04T08:39:31.265Z,73.70
2017-09-04T08:41:59.700Z,74.00
2017-09-04T08:44:27.215Z,73.30
2017-09-04T08:46:55.140Z,71.50
2017-09-04T08:49:22.708Z,71.00
2017-09-04T08:51:50.984Z,69.70
2017-09-04T08:54:19.211Z,69.70
2017-09-04T08:56:46.714Z,69.20
2017-09-04T08:59:14.229Z,68.40
2017-09-04T09:01:41.736Z,68.40
2017-09-04T09:04:09.247Z,68.10
2017-09-04T09:06:38.823Z,68.00
2017-09-04T09:09:06.368Z,68.00
2017-09-04T09:11:34.664Z,66.80
2017-09-04T09:14:02.172Z,66.80
2017-09-04T09:16:30.139Z,66.00
2017-09-04T09:18:57.679Z,65.10
2017-09-04T09:21:25.222Z,65.10
2017-09-04T09:23:52.996Z,65.50
2017-09-04T09:26:20.519Z,66.50
2017-09-04T09:28:48.027Z,66.00
2017-09-04T09:31:16.456Z,64.40
2017-09-04T09:33:48.039Z,63.50
2017-09-04T09:36:15.565Z,64.70
2017-09-04T09:38:43.153Z,63.30
2017-09-04T09:41:11.527Z,63.10
2017-09-04T09:43:39.174Z,62.30
2017-09-04T09:46:09.572Z,62.40
2017-09-04T09:48:37.078Z,61.50
2017-09-04T09:51:04.596Z,60.50
2017-09-04T09:53:32.756Z,59.90
2017-09-04T09:56:00.884Z,59.20
2017-09-04T09:58:28.441Z,58.80
2017-09-04T10:00:55.967Z,58.30
2017-09-04T10:03:23.523Z,57.90
2017-09-04T10:05:51.151Z,57.70
2017-09-04T10:08:19.631Z,57.90
2017-09-04T10:10:47.131Z,57.00
2017-09-04T10:13:14.663Z,56.90
2017-09-04T10:15:42.187Z,56.80
2017-09-04T10:18:09.720Z,55.90
2017-09-04T10:20:37.239Z,54.90
2017-09-04T10:23:04.756Z,53.40
2017-09-04T10:25:32.663Z,54.70
2017-09-04T10:28:00.182Z,55.60
2017-09-04T10:30:28.151Z,55.70
2017-09-04T10:32:55.683Z,55.10
2017-09-04T10:35:23.215Z,54.30
2017-09-04T10:37:50.728Z,54.10
2017-09-04T10:40:18.263Z,52.40
2017-09-04T10:42:45.920Z,52.70
2017-09-04T10:45:13.450Z,53.50
2017-09-04T10:47:41.688Z,52.30
2017-09-04T10:50:09.253Z,52.20
2017-09-04T10:52:36.755Z,52.10
2017-09-04T10:55:04.265Z,52.70
2017-09-04T10:57:31.835Z,53.20
2017-09-04T10:59:59.339Z,51.10
2017-09-04T11:02:26.844Z,50.10
2017-09-04T11:04:54.348Z,48.20
2017-09-04T11:07:25.723Z,49.60
2017-09-04T11:09:53.227Z,48.30
2017-09-04T11:12:20.731Z,48.30
2017-09-04T11:14:48.232Z,46.80
2017-09-04T11:17:15.781Z,46.20
2017-09-04T11:19:43.578Z,46.60
2017-09-04T11:22:14.643Z,48.80
2017-09-04T11:24:42.221Z,48.60
2017-09-04T11:27:09.719Z,49.70
2017-09-04T11:29:37.431Z,49.70
2017-09-04T11:32:04.930Z,49.50
2017-09-04T11:34:32.680Z,49.60
2017-09-04T11:37:00.181Z,49.70
2017-09-04T11:39:27.696Z,50.40
2017-09-04T11:41:55.366Z,49.40
2017-09-04T11:44:23.282Z,50.60
2017-09-04T11:46:50.796Z,51.40
2017-09-04T11:49:18.327Z,50.60
2017-09-04T11:51:46.041Z,51.30
2017-09-04T11:54:13.534Z,49.50
2017-09-04T11:56:41.060Z,49.50
2017-09-04T11:59:08.563Z,49.40
2017-09-04T12:01:37.771Z,48.50
2017-09-04T12:04:05.267Z,48.50
2017-09-04T12:06:32.779Z,47.80
2017-09-04T12:09:01.339Z,47.80
2017-09-04T12:11:28.958Z,48.60
2017-09-04T12:13:56.455Z,48.80
2017-09-04T12:16:23.998Z,49.50
2017-09-04T12:18:51.509Z,48.50
2017-09-04T12:21:19.015Z,47.40
2017-09-04T12:23:46.815Z,48.60
2017-09-04T12:26:15.211Z,48.50
2017-09-04T12:28:42.711Z,48.70
2017-09-04T12:31:10.248Z,49.00
2017-09-04T12:33:37.755Z,47.40
2017-09-04T12:36:05.276Z,47.40
2017-09-04T12:38:33.727Z,49.10
2017-09-04T12:41:01.668Z,48.10
2017-09-04T12:43:29.164Z,47.60
2017-09-04T12:45:56.659Z,48.30
2017-09-04T12:48:24.307Z,47.00
2017-09-04T12:50:51.812Z,47.60
2017-09-04T12:53:19.316Z,47.60
2017-09-04T12:55:46.959Z,48.70
2017-09-04T12:58:14.476Z,47.90
2017-09-04T13:00:42.287Z,48.70
2017-09-04T13:03:09.791Z,48.90
2017-09-04T13:05:37.480Z,49.60
2017-09-04T13:08:04.987Z,50.60
2017-09-04T13:10:38.540Z,51.00
2017-09-04T13:13:11.754Z,51.00
2017-09-04T13:19:09.729Z,52.40
2017-09-04T13:21:43.748Z,50.70
2017-09-04T13:24:16.835Z,53.40
2017-09-04T13:26:50.523Z,53.40
2017-09-04T13:29:23.696Z,54.40
2017-09-04T13:31:57.091Z,54.90
2017-09-04T13:34:30.263Z,53.90
2017-09-04T13:36:59.732Z,55.70
2017-09-04T13:39:34.331Z,53.60
2017-09-04T13:45:06.596Z,52.10
2017-09-04T13:47:34.775Z,50.30
2017-09-04T13:50:04.768Z,50.10
2017-09-04T13:55:48.758Z,49.10
2017-09-04T13:58:23.642Z,47.70
2017-09-04T14:01:08.828Z,47.60
2017-09-04T14:03:42.497Z,47.80
2017-09-04T14:09:37.328Z,46.70
2017-09-04T14:12:10.427Z,45.90
2017-09-04T14:14:53.774Z,46.80
2017-09-04T14:20:26.186Z,45.90
2017-09-04T14:22:54.029Z,45.70
2017-09-04T14:25:21.529Z,45.10
2017-09-04T14:27:49.071Z,43.50
2017-09-04T14:30:17.344Z,42.20
2017-09-04T14:32:44.916Z,42.20
2017-09-04T14:35:12.474Z,42.10
2017-09-04T14:37:40.898Z,42.20
2017-09-04T14:40:08.421Z,41.30
2017-09-04T14:45:47.201Z,40.00
2017-09-04T14:48:14.708Z,40.00
2017-09-04T14:50:42.448Z,39.50
2017-09-04T14:53:10.373Z,39.40
2017-09-04T14:55:38.316Z,39.80
2017-09-04T14:58:06.576Z,40.80
2017-09-04T15:00:34.080Z,40.70
2017-09-04T15:03:01.884Z,40.70
2017-09-04T15:05:30.600Z,41.90
2017-09-04T15:07:58.181Z,41.80
2017-09-04T15:10:25.733Z,39.70
2017-09-04T15:12:54.227Z,41.30
2017-09-04T15:15:21.729Z,40.70
2017-09-04T15:17:49.391Z,40.80
2017-09-04T15:20:16.908Z,41.30
2017-09-04T15:22:44.408Z,40.90
2017-09-04T15:25:11.903Z,40.70
2017-09-04T15:27:39.408Z,40.90
2017-09-04T15:30:07.840Z,41.00
2017-09-04T15:32:35.356Z,41.80
2017-09-04T15:35:03.152Z,40.20
2017-09-04T15:37:30.699Z,38.50
2017-09-04T15:39:58.964Z,38.20
2017-09-04T15:42:27.653Z,39.00
2017-09-04T15:44:55.156Z,38.90
2017-09-04T15:47:22.711Z,39.40
2017-09-04T15:49:52.675Z,40.80
2017-09-04T15:52:20.545Z,40.80
2017-09-04T15:54:48.056Z,40.40
2017-09-04T15:57:16.726Z,41.30
2017-09-04T15:59:44.249Z,41.70
2017-09-04T16:02:11.795Z,42.00
2017-09-04T16:04:39.300Z,41.80
2017-09-04T16:07:21.604Z,41.10
2017-09-04T16:09:49.120Z,42.10
2017-09-04T16:12:19.068Z,42.10
2017-09-04T16:14:47.193Z,41.80
2017-09-04T16:17:24.615Z,42.40
2017-09-04T16:19:54.712Z,42.30
2017-09-04T16:22:27.923Z,42.80
2017-09-04T16:24:59.325Z,42.60
2017-09-04T16:27:40.701Z,43.40
2017-09-04T16:30:13.759Z,43.30
2017-09-04T16:35:40.613Z,43.90
2017-09-04T16:41:16.888Z,43.60
2017-09-04T16:46:49.100Z,45.30
2017-09-04T16:49:16.611Z,46.70
2017-09-04T16:51:44.703Z,46.50
2017-09-04T16:54:31.873Z,47.60
2017-09-04T16:57:16.169Z,46.70
2017-09-04T16:59:43.822Z,46.70
2017-09-04T17:02:11.383Z,47.80
2017-09-04T17:04:38.881Z,48.40
2017-09-04T17:07:06.557Z,46.90
2017-09-04T17:09:34.099Z,48.80
2017-09-04T17:12:01.828Z,50.00
2017-09-04T17:14:30.248Z,52.10
2017-09-04T17:17:00.355Z,52.00
2017-09-04T17:19:28.771Z,52.20
2017-09-04T17:21:58.783Z,52.10
2017-09-04T17:24:27.583Z,52.20
2017-09-04T17:26:55.356Z,51.30
2017-09-04T17:29:22.916Z,51.20
2017-09-04T17:31:50.429Z,50.00
2017-09-04T17:34:17.932Z,51.70
2017-09-04T17:36:45.456Z,53.70
2017-09-04T17:39:13.768Z,55.00
2017-09-04T17:41:41.284Z,56.20
2017-09-04T17:44:08.797Z,58.20
2017-09-04T17:46:36.309Z,59.30
2017-09-04T17:49:03.800Z,60.80
2017-09-04T17:51:31.318Z,63.00
2017-09-04T17:53:58.824Z,63.80
2017-09-04T17:56:26.544Z,65.10
2017-09-04T17:58:54.817Z,67.20
2017-09-04T18:01:22.321Z,67.20
2017-09-04T18:03:49.856Z,67.90
2017-09-04T18:06:17.391Z,69.30
2017-09-04T18:08:47.523Z,71.20
2017-09-04T18:11:15.047Z,71.10
2017-09-04T18:13:42.636Z,71.20
2017-09-04T18:16:10.243Z,68.10
2017-09-04T18:18:38.559Z,69.10
2017-09-04T18:21:06.067Z,69.00
2017-09-04T18:23:33.559Z,69.80
2017-09-04T18:26:01.065Z,68.90
2017-09-04T18:28:28.567Z,69.20
2017-09-04T18:30:56.076Z,70.70
2017-09-04T18:33:24.527Z,71.60
2017-09-04T18:35:52.609Z,71.90
2017-09-04T18:38:20.134Z,72.20
2017-09-04T18:40:47.660Z,72.00
2017-09-04T18:43:15.190Z,72.90
2017-09-04T18:45:44.382Z,73.60
2017-09-04T18:48:11.890Z,73.60
2017-09-04T18:50:39.392Z,73.60
2017-09-04T18:53:07.226Z,74.30
2017-09-04T18:55:34.718Z,74.80
2017-09-04T18:58:07.103Z,75.30
2017-09-04T19:00:34.623Z,75.40
2017-09-04T19:03:02.124Z,76.10
2017-09-04T19:05:29.644Z,76.90
2017-09-04T19:07:57.915Z,78.30
2017-09-04T19:10:25.445Z,78.60
2017-09-04T19:12:52.959Z,79.30
2017-09-04T19:15:20.455Z,79.50
2017-09-04T19:17:48.049Z,78.80
2017-09-04T19:20:15.555Z,79.30
2017-09-04T19:22:43.195Z,79.50
2017-09-04T19:25:10.959Z,79.70
2017-09-04T19:27:38.527Z,79.70
2017-09-04T19:30:06.435Z,80.10
2017-09-04T19:32:33.947Z,81.10
2017-09-04T19:35:01.447Z,80.40
2017-09-04T19:37:29.003Z,80.70
2017-09-04T19:39:56.501Z,80.70
2017-09-04T19:42:24.115Z,81.30
2017-09-04T19:44:52.455Z,80.40
2017-09-04T19:47:19.985Z,80.40
2017-09-04T19:49:47.510Z,81.40
2017-09-04T19:52:15.064Z,81.70
2017-09-04T19:54:42.868Z,79.90
2017-09-04T19:57:10.371Z,80.40
2017-09-04T19:59:38.868Z,81.00
2017-09-04T20:02:06.595Z,80.20
2017-09-04T20:04:34.872Z,81.10
2017-09-04T20:07:02.572Z,80.50
2017-09-04T20:09:30.387Z,80.80
2017-09-04T20:11:57.972Z,81.10
2017-09-04T20:14:25.688Z,81.10
2017-09-04T20:16:53.186Z,81.20
2017-09-04T20:19:20.683Z,81.50
2017-09-04T20:21:48.183Z,81.50
2017-09-04T20:24:16.047Z,81.30
2017-09-04T20:26:43.595Z,82.00
2017-09-04T20:29:12.040Z,82.30
2017-09-04T20:31:39.539Z,82.70
2017-09-04T20:34:07.399Z,82.70
2017-09-04T20:36:34.899Z,83.20
2017-09-04T20:39:02.543Z,83.30
2017-09-04T20:41:31.655Z,82.90
2017-09-04T20:43:59.159Z,82.90
2017-09-04T20:46:26.703Z,83.20
2017-09-04T20:48:55.131Z,83.60
2017-09-04T20:51:22.832Z,83.70
2017-09-04T20:53:50.327Z,84.40
2017-09-04T20:56:17.883Z,84.70
2017-09-04T20:58:45.413Z,85.00
2017-09-04T21:01:12.923Z,85.50
2017-09-04T21:03:40.443Z,85.90
2017-09-04T21:06:08.194Z,85.90
2017-09-04T21:08:35.800Z,87.00
2017-09-04T21:11:03.722Z,87.20
2017-09-04T21:13:31.284Z,87.70
2017-09-04T21:15:58.784Z,87.90
2017-09-04T21:18:26.321Z,88.00
2017-09-04T21:20:53.984Z,88.60
2017-09-04T21:23:22.415Z,87.60
2017-09-04T21:25:49.915Z,86.80
2017-09-04T21:28:17.426Z,87.30
2017-09-04T21:30:45.715Z,87.40
2017-09-04T21:33:13.212Z,87.30
2017-09-04T21:35:40.732Z,88.00
2017-09-04T21:38:08.691Z,87.90
2017-09-04T21:40:37.377Z,87.60
2017-09-04T21:43:04.875Z,87.60
2017-09-04T21:45:32.382Z,87.30
2017-09-04T21:47:59.924Z,86.80
2017-09-04T21:50:27.424Z,87.30
2017-09-04T21:52:55.661Z,87.70
2017-09-04T21:55:23.255Z,88.30
2017-09-04T21:57:50.763Z,88.80
2017-09-04T22:00:18.308Z,88.90
2017-09-04T22:02:45.854Z,88.30
2017-09-04T22:05:13.388Z,87.90
2017-09-04T22:07:40.923Z,87.60
2017-09-04T22:10:10.315Z,88.50
2017-09-04T22:12:37.824Z,88.50
2017-09-04T22:15:05.377Z,88.80
2017-09-04T22:17:33.843Z,89.10
2017-09-04T22:20:01.346Z,90.20
2017-09-04T22:22:28.852Z,90.10
2017-09-04T22:24:56.366Z,90.20
2017-09-04T22:27:23.868Z,90.00
2017-09-04T22:29:51.399Z,89.80
2017-09-04T22:32:22.290Z,89.20
2017-09-04T22:34:49.795Z,88.50
2017-09-04T22:37:17.833Z,87.90
2017-09-04T22:39:45.336Z,87.70
2017-09-04T22:42:13.048Z,87.70
2017-09-04T22:44:40.584Z,88.80
2017-09-04T22:47:08.098Z,88.60
2017-09-04T22:49:36.524Z,89.00
2017-09-04T22:52:04.035Z,89.10
2017-09-04T22:54:31.535Z,89.10
2017-09-04T22:56:59.035Z,89.40
2017-09-04T22:59:26.540Z,89.50
2017-09-04T23:01:54.820Z,89.00
2017-09-04T23:04:22.358Z,88.90
2017-09-04T23:06:50.548Z,88.60
2017-09-04T23:09:18.059Z,88.40
2017-09-04T23:11:45.587Z,88.60
2017-09-04T23:14:13.746Z,89.00
2017-09-04T23:16:42.014Z,89.90
2017-09-04T23:19:09.519Z,89.90
2017-09-04T23:21:37.066Z,90.20
2017-09-04T23:24:04.622Z,90.40
2017-09-04T23:26:32.119Z,90.60
2017-09-04T23:28:59.619Z,90.70
2017-09-04T23:31:27.124Z,90.80
2017-09-04T23:33:54.626Z,90.90
2017-09-04T23:36:22.655Z,91.10
2017-09-04T23:38:50.158Z,91.20
2017-09-04T23:41:17.779Z,91.30
2017-09-04T23:43:45.278Z,91.50
2017-09-04T23:46:12.771Z,91.60
2017-09-04T23:48:40.427Z,91.70
2017-09-04T23:51:07.972Z,91.70
2017-09-04T23:53:35.516Z,91.80
2017-09-04T23:56:03.789Z,91.90
2017-09-04T23:58:31.495Z,91.90
